ENVF weather

Veslefrikk B Platform
Norway

Public forecast

Using degrees Celsius for public forecast. Weather courtesy of forecast.io.

Closest aviation weather report (METAR) to Veslefrikk B Platform

Closest report is Oseberg A Platform, 17.6 nm (32.6 km) S. Retrieved 2019/12/15 12:20 UTC (35 minutes ago):

ENOA 151220Z 15015KT 090V160 9999 FEW040 BKN055 06/01 Q0978 W///S4

Closest aviation forecast (TAF) to Veslefrikk B Platform

Closest forecast is Oseberg A Platform, 17.6 nm (32.6 km) S. Retrieved 2019/12/15 12:57 UTC (0 seconds ago):

TAF ENOA 151100Z 1512/1612 13012KT 9999 -SHRA FEW012TCU BKN030 TEMPO 1512/1610 SHRA BKN012 SCT018CB PROB30 1600/1606 TS BECMG 1521/1523 26020KT BECMG 1609/1612 20015KT